Mata de Sao Joao, Brazil
Current Conditions -  °F | °C
As of 11:00 AM on Thursday 30 Oct 2014 (Local Time) from SBSV Reporting Station
Scattered Clouds Scattered Clouds  
Wind Chill: 84°   Ceiling: Unl
Heat Index: 90°   Visibility: 6mi
Dew Point: 72°   Wind: 16mph
Humidity: 66%   Direction: 60°ENE
Pressure: 29.97"   Gusts: NA
Location:  12.53°S, 38.3°W
Report Text: SBSV 301400Z 06014KT 9999 SCT017 29/22 Q1015
Loading
Personal Weather Stations






























Interactive Weather Map
Tropical Storm Tracking
New forecast layout! Learn more

10-Day Weather Forecast

Advertisements
Track Severe Weather on mobile